Fort Montgomery, New York
Current Conditions -  °F | °C
As of 7:45 PM on Saturday 20 Dec 2014 (Local Time) from KSWF Reporting Station
Overcast Overcast  
Wind Chill: 28°   Ceiling: 1800
Heat Index: 28°   Visibility: 10mi
Dew Point: 23°   Wind: 3mph
Humidity: 80%   Direction: NA
Pressure: 30.29"   Gusts: NA
Location:  41.34°N, 73.99°W
Report Text: KSWF 210045Z VRB03KT 10SM OVC018 M02/M05 A3029
Loading
Personal Weather Stations






























Interactive Weather Map New forecast layout! Learn more

10-Day Weather Forecast

Advertisements
Track Severe Weather on mobile